Latest Coastal Weather Observations for Bunbury

IDW60701

Issued at 8:33 pm WST Tuesday 23 May 2017 (issued every 10 minutes, with the page automatically refreshed every 10 minutes)

About coastal observations | Map of coastal stations | Coastal observations for WA | Marine services | Other Formats
Station Details ID: 009965 Name: BUNBURY Lat: -33.36 Lon: 115.64 Height: 5.2 m
Data from the previous 72 hours. | See also: Recent months at Bunbury
Date/Time
WST
Temp
°C
Wind Pressure Rain since
9am
mm
Weather Cloud Vis
km
Sea
Height
m
Swell
Dir  Spd
kts
Gust
kts
hPa Trend Height
m
Period
s
Dir
23/08:30pm 15.9 W 8 12 1021.2 - 1.4 - - - - - - -
23/08:00pm 15.9 WSW 3 4 1021.0 - 1.4 - - - - - - -
23/07:30pm 16.2 W 5 8 1021.1 - 1.4 - - - - - - -
23/07:00pm 15.9 WNW 7 11 1021.1 - 1.0 - - - - - - -
23/06:30pm 15.8 NNW 4 10 1021.0 - 1.0 - - - - - - -
23/06:00pm 15.5 WNW 7 12 1020.8 - 1.0 Rain - - - - - -
23/05:30pm 15.9 NE 2 2 1020.7 - 0.8 - - - - - - -
23/05:00pm 16.1 CALM 0 0 1020.7 - 0.8 - - - - - - -
23/04:30pm 16.4 CALM 0 1 1020.6 - 0.8 - - - - - - -
23/04:00pm 16.5 WNW 2 3 1020.6 - 0.8 - - - - - - -
23/03:30pm 16.6 NW 3 6 1020.6 - 0.8 - - - - - - -
23/03:00pm 17.0 WNW 1 3 1020.5 - 0.6 - - - - - - -
23/02:30pm 16.3 NNW 3 5 1020.6 - 0.6 - - - - - - -
23/02:00pm 16.9 WNW 5 8 1020.7 - 0.6 - - - - - - -
23/01:30pm 16.4 NNW 4 6 1020.9 - 0.6 - - - - - - -
23/01:00pm 15.9 NNW 5 8 1021.2 - 0.6 - - - - - - -
23/12:30pm 16.9 NNW 4 7 1021.3 - 0.2 - - - - - - -
23/12:00pm 16.5 NNW 3 5 1021.6 - 0.2 - - - - - - -
23/11:30am 16.2 ENE 2 3 1022.0 - 0.2 - - - - - - -
23/11:00am 15.2 N 2 3 1022.5 - 0.2 - - - - - - -
23/10:30am 15.5 N 3 5 1022.6 - 0.0 - - - - - - -
23/10:00am 14.7 NE 2 3 1022.7 - 0.0 - - - - - - -
23/09:30am 14.1 NNE 2 2 1022.6 - 0.0 - - - - - - -
23/09:00am 13.7 ENE 2 3 1022.4 - 4.8 - - - - - - -
23/08:30am 13.1 ENE 2 3 1022.2 - 4.8 - - - - - - -
23/08:00am 12.7 ENE 2 2 1022.0 - 4.8 - - - - - - -
23/07:30am 12.5 NE 2 3 1021.7 - 4.8 - - - - - - -
23/07:00am 12.1 E 1 3 1021.5 - 4.8 - - - - - - -
23/06:30am 11.9 CALM 0 2 1021.1 - 4.8 - - - - - - -
23/06:00am 11.6 ENE 1 2 1020.9 - 4.8 - - - - - - -
23/05:30am 11.3 CALM 0 3 1020.6 - 4.8 - - - - - - -
23/05:00am 11.3 E 1 2 1020.5 - 4.8 - - - - - - -
23/04:30am 11.6 E 2 2 1020.3 - 4.8 - - - - - - -
23/04:00am 11.2 ENE 1 2 1020.4 - 4.8 - - - - - - -
23/03:30am 11.2 CALM 0 0 1020.5 - 4.8 - - - - - - -
23/03:00am 10.8 CALM 0 0 1020.5 - 4.8 - - - - - - -
23/02:30am 10.5 CALM 0 0 1020.3 - 4.8 - - - - - - -
23/02:00am 11.0 ENE 1 3 1020.2 - 4.8 - - - - - - -
23/01:30am 10.9 E 2 3 1020.5 - 4.8 - - - - - - -
23/01:00am 10.2 CALM 0 1 1020.6 - 4.2 - - - - - - -
23/12:30am 10.2 SSE 1 1 1020.6 - 4.2 - - - - - - -
23/12:00am 10.1 CALM 0 0 1020.8 - 4.2 - - - - - - -
 
Date/Time
WST
Temp
°C
Wind Pressure Rain since
9am
mm
Weather Cloud Vis
km
Sea
Height
m
Swell
Dir  Spd
kts
Gust
kts
hPa Trend Height
m
Period
s
Dir
22/11:30pm 9.6 ESE 1 3 1020.8 - 4.2 - - - - - - -
22/11:00pm 9.2 CALM 0 0 1021.0 - 4.2 - - - - - - -
22/10:30pm 9.1 CALM 0 0 1021.0 - 4.2 - - - - - - -
22/10:00pm 9.6 CALM 0 0 1021.1 - 4.2 - - - - - - -
22/09:30pm 9.3 CALM 0 0 1021.2 - 4.2 - - - - - - -
22/09:00pm 10.5 CALM 0 0 1021.1 - 4.2 - - - - - - -
22/08:30pm 11.8 CALM 0 0 1021.1 - 4.2 - - - - - - -
22/08:00pm 12.5 CALM 0 0 1020.8 - 4.2 - - - - - - -
22/07:30pm 13.6 SSW 3 5 1020.7 - 4.2 - - - - - - -
22/07:00pm 13.9 ESE 3 4 1020.4 - 4.2 - - - - - - -
22/06:30pm 14.2 E 1 2 1020.1 - 4.2 - - - - - - -
22/06:00pm 14.6 ESE 2 3 1019.7 - 4.2 Recent precip. - - - - - -
22/05:30pm 14.6 N 2 3 1019.4 - 4.2 - - - - - - -
22/05:00pm 14.7 NE 2 3 1019.3 - 4.0 - - - - - - -
22/04:30pm 14.8 N 1 2 1019.1 - 4.0 - - - - - - -
22/04:00pm 14.4 W 4 8 1019.1 - 4.0 - - - - - - -
22/03:30pm 15.0 WSW 5 9 1018.9 - 0.8 - - - - - - -
22/03:00pm 15.6 NW 5 8 1018.5 - 0.2 Recent precip. - - - - - -
22/02:30pm 15.6 NNW 4 8 1018.4 - 0.0 - - - - - - -
22/02:00pm 16.4 N 7 10 1018.2 - 0.0 - - - - - - -
22/01:30pm 17.4 N 6 10 1018.1 - 0.0 - - - - - - -
22/01:00pm 16.7 N 6 9 1018.3 - 0.0 - - - - - - -
22/12:30pm 15.3 N 3 5 1018.5 - 0.0 - - - - - - -
22/12:00pm 15.7 N 5 8 1018.6 - 0.0 - - - - - - -
22/11:30am 14.7 N 5 8 1018.9 - 0.0 - - - - - - -
22/11:00am 14.7 N 4 5 1018.9 - 0.0 - - - - - - -
22/10:30am 15.1 NNE 3 5 1018.9 - 0.0 - - - - - - -
22/10:00am 14.4 E 2 3 1019.0 - 0.0 - - - - - - -
22/09:30am 12.9 NE 2 3 1018.8 - 0.0 - - - - - - -
22/09:00am 10.6 NE 2 3 1018.8 - 1.0 - - - - - - -
22/08:30am 8.8 ENE 1 2 1018.5 - 1.0 - - - - - - -
22/08:00am 7.6 S 4 9 1018.2 - 1.0 - - - - - - -
22/07:30am 4.3 E 1 3 1017.7 - 0.4 - - - - - - -
22/07:00am 4.5 CALM 0 0 1017.4 - 0.4 - - - - - - -
22/06:30am 4.5 E 1 2 1017.1 - 0.4 - - - - - - -
22/06:00am 4.7 ESE 3 5 1016.9 - 0.4 - - - - - - -
22/05:30am 5.1 CALM 0 0 1016.7 - 0.4 - - - - - - -
22/05:00am 6.1 CALM 0 2 1016.5 - 0.4 - - - - - - -
22/04:30am 5.7 SSW 1 3 1016.3 - 0.4 - - - - - - -
22/04:00am 5.1 S 1 2 1015.9 - 0.2 - - - - - - -
22/03:30am 4.7 CALM 0 0 1015.8 - 0.2 - - - - - - -
22/03:00am 5.2 CALM 0 0 1015.8 - 0.2 - - - - - - -
22/02:30am 5.2 CALM 0 0 1015.4 - 0.2 - - - - - - -
22/02:00am 5.0 ESE 1 2 1015.2 - 0.2 - - - - - - -
22/01:30am 5.9 E 2 2 1015.1 - 0.2 - - - - - - -
22/01:00am 6.5 CALM 0 0 1014.9 - 0.2 - - - - - - -
22/12:30am 6.3 SSE 1 2 1014.7 - 0.2 - - - - - - -
22/12:00am 6.7 E 2 3 1014.4 - 0.2 - - - - - - -
 
Date/Time
WST
Temp
°C
Wind Pressure Rain since
9am
mm
Weather Cloud Vis
km
Sea
Height
m
Swell
Dir  Spd
kts
Gust
kts
hPa Trend Height
m
Period
s
Dir
21/11:30pm 7.1 ESE 2 3 1014.3 - 0.2 - - - - - - -
21/11:00pm 7.8 E 2 2 1014.2 - 0.2 - - - - - - -
21/10:30pm 8.0 E 2 3 1014.2 - 0.2 - - - - - - -
21/10:00pm 8.8 SSE 3 4 1014.1 - 0.2 - - - - - - -
21/09:30pm 8.4 CALM 0 0 1014.0 - 0.2 - - - - - - -
21/09:00pm 9.9 SSW 3 6 1013.7 - 0.2 - - - - - - -
21/08:30pm 10.9 S 5 8 1013.4 - 0.2 - - - - - - -
21/08:00pm 10.1 SSW 3 5 1013.0 - 0.2 - - - - - - -
21/07:30pm 10.3 S 2 4 1012.6 - 0.2 - - - - - - -
21/07:00pm 10.2 S 3 5 1012.3 - 0.2 - - - - - - -
21/06:30pm 11.0 SSW 5 7 1011.8 - 0.2 - - - - - - -
21/06:00pm 11.2 SSW 6 8 1011.4 - 0.2 - - - - - - -
21/05:30pm 11.2 SSW 3 5 1010.8 - 0.2 - - - - - - -
21/05:00pm 12.1 SSW 9 13 1010.8 - 0.2 - - - - - - -
21/04:30pm 12.7 SSW 6 9 1010.4 - 0.2 - - - - - - -
21/04:06pm 12.7 SW 13 23 1010.4 - 0.2 - - - - - - -
21/04:00pm 13.7 SSW 9 12 1010.1 - 0.0 - - - - - - -
21/03:30pm 14.8 SSW 10 16 1009.5 - 0.0 - - - - - - -
21/03:00pm 14.6 SW 11 16 1009.1 - 0.0 - - - - - - -
21/02:30pm 15.3 SW 13 19 1008.6 - 0.0 - - - - - - -
21/02:00pm 14.3 SW 13 20 1008.2 - 0.0 - - - - - - -
21/01:30pm 15.6 SW 10 18 1007.9 - 0.0 - - - - - - -
21/01:00pm 14.6 SSW 12 19 1007.7 - 0.0 - - - - - - -
21/12:30pm 16.2 SSW 12 17 1007.4 - 0.0 - - - - - - -
21/12:00pm 15.0 SW 12 20 1007.5 - 0.0 - - - - - - -
21/11:30am 15.0 SW 10 17 1007.4 - 0.0 - - - - - - -
21/11:00am 15.0 SW 10 16 1007.2 - 0.0 - - - - - - -
21/10:30am 14.9 SW 12 19 1007.0 - 0.0 - - - - - - -
21/10:00am 14.6 SSW 13 21 1006.7 - 0.0 - - - - - - -
21/09:30am 14.3 SW 11 16 1006.2 - 0.0 - - - - - - -
21/09:00am 13.7 SSW 11 17 1005.7 - 5.4 - - - - - - -
21/08:30am 13.3 SSW 11 18 1005.4 - 5.4 - - - - - - -
21/08:00am 13.4 SSW 11 17 1004.8 - 5.4 - - - - - - -
21/07:30am 13.4 SSW 10 15 1003.9 - 5.4 - - - - - - -
21/07:00am 13.6 SSW 10 14 1003.2 - 5.4 - - - - - - -
21/06:30am 14.2 WSW 9 17 1002.4 - 5.4 - - - - - - -
21/06:00am 14.5 SW 15 22 1002.3 - 5.2 Recent precip. - - - - - -
21/05:30am 14.8 WSW 13 21 1001.6 - 5.2 - - - - - - -
21/05:00am 14.4 SW 20 35 1001.7 - 4.8 - - - - - - -
21/04:59am 14.6 WSW 20 35 1001.7 - 4.8 - - - - - - -
21/04:30am 15.9 W 18 30 1001.0 - 4.6 - - - - - - -
21/04:21am 17.0 W 15 27 1001.0 - 4.6 - - - - - - -
21/04:00am 16.9 W 19 28 1001.0 - 4.6 - - - - - - -
21/03:33am 16.5 W 17 28 1001.3 - 4.6 - - - - - - -
21/03:30am 16.8 W 17 26 1001.2 - 4.6 - - - - - - -
21/03:00am 16.9 W 17 27 1001.3 - 4.6 - - - - - - -
21/02:30am 16.9 W 17 27 1001.3 - 4.6 - - - - - - -
21/02:00am 15.7 WNW 19 30 1001.6 - 4.6 - - - - - - -
21/01:30am 15.7 WNW 21 34 1001.7 - 4.6 - - - - - - -
21/01:28am 15.4 WNW 21 34 1001.6 - 4.6 - - - - - - -
21/01:00am 16.6 NW 17 29 1001.9 - 4.0 - - - - - - -
21/12:38am 15.3 NW 17 28 1002.6 - 4.0 - - - - - - -
21/12:30am 15.2 NW 19 28 1002.9 - 4.0 - - - - - - -
21/12:08am 15.6 NW 16 29 1002.9 - 3.8 - - - - - - -
21/12:00am 15.0 NW 12 25 1003.2 - 3.6 Rain - - - - - -
 
Date/Time
WST
Temp
°C
Wind Pressure Rain since
9am
mm
Weather Cloud Vis
km
Sea
Height
m
Swell
Dir  Spd
kts
Gust
kts
hPa Trend Height
m
Period
s
Dir
20/11:43pm 16.6 NW 17 40 1003.6 - 3.0 - - - - - - -
20/11:42pm 16.8 NNW 15 27 1003.6 - 3.0 - - - - - - -
20/11:30pm 16.3 NNW 14 22 1003.5 - 3.0 - - - - - - -
20/11:16pm 16.1 NNW 15 25 1003.9 - 3.0 - - - - - - -
20/11:00pm 15.6 NNW 15 23 1004.3 - 3.0 - - - - - - -
20/10:30pm 15.8 NW 17 32 1004.9 - 2.6 - - - - - - -
20/10:15pm 16.3 NNW 15 27 1005.0 - 2.6 - - - - - - -
20/10:00pm 16.0 NNW 13 23 1005.4 - 2.6 - - - - - - -
20/09:30pm 15.1 N 10 19 1006.1 - 2.6 - - - - - - -
20/09:00pm 14.8 N 12 18 1006.9 - 2.6 Recent precip. - - - - - -

Other Formats:

Comma delimited format used in spreadsheet applications
http://www.bom.gov.au/fwo/IDW60701/IDW60701.94604.axf

JavaScript Object Notation format (JSON) in row-major order
http://www.bom.gov.au/fwo/IDW60701/IDW60701.94604.json